createdAt,value
2023-05-11T00:02:15.416Z,14.70
2023-05-11T00:04:44.506Z,14.80
2023-05-11T00:07:13.158Z,14.90
2023-05-11T00:09:44.305Z,14.90
2023-05-11T00:12:14.680Z,14.90
2023-05-11T00:14:43.410Z,14.90
2023-05-11T00:17:12.254Z,14.80
2023-05-11T00:19:40.922Z,14.60
2023-05-11T00:22:09.592Z,14.50
2023-05-11T00:24:39.380Z,14.30
2023-05-11T00:27:07.979Z,14.30
2023-05-11T00:29:38.040Z,14.40
2023-05-11T00:32:06.718Z,14.50
2023-05-11T00:34:35.527Z,14.40
2023-05-11T00:37:04.526Z,14.40
2023-05-11T00:39:38.826Z,14.40
2023-05-11T00:42:07.772Z,14.30
2023-05-11T00:44:38.061Z,14.20
2023-05-11T00:47:07.112Z,14.10
2023-05-11T00:49:35.956Z,14.10
2023-05-11T00:52:04.951Z,14.00
2023-05-11T00:54:33.586Z,13.90
2023-05-11T00:57:02.994Z,13.90
2023-05-11T00:59:31.670Z,13.80
2023-05-11T01:02:01.917Z,13.80
2023-05-11T01:04:30.885Z,13.70
2023-05-11T01:07:06.118Z,13.70
2023-05-11T01:09:47.843Z,13.70
2023-05-11T01:12:27.624Z,13.50
2023-05-11T01:15:03.557Z,13.50
2023-05-11T01:17:44.570Z,13.50
2023-05-11T01:20:19.987Z,13.50
2023-05-11T01:23:16.769Z,13.50
2023-05-11T01:26:10.253Z,13.50
2023-05-11T01:29:12.148Z,13.40
2023-05-11T01:31:44.169Z,13.40
2023-05-11T01:34:18.490Z,13.50
2023-05-11T01:36:52.685Z,13.50
2023-05-11T01:39:28.336Z,13.40
2023-05-11T01:41:59.824Z,13.50
2023-05-11T01:44:33.659Z,13.40
2023-05-11T01:47:04.977Z,13.20
2023-05-11T01:49:38.897Z,13.30
2023-05-11T01:52:10.068Z,13.40
2023-05-11T01:54:40.043Z,13.50
2023-05-11T01:57:10.644Z,13.40
2023-05-11T01:59:44.783Z,13.50
2023-05-11T02:02:16.788Z,13.50
2023-05-11T02:04:46.805Z,13.60
2023-05-11T02:07:17.881Z,13.70
2023-05-11T02:09:47.381Z,13.70
2023-05-11T02:12:19.532Z,13.60
2023-05-11T02:14:48.871Z,13.60
2023-05-11T02:17:22.323Z,13.50
2023-05-11T02:19:52.300Z,13.50
2023-05-11T02:22:22.055Z,13.60
2023-05-11T02:24:51.473Z,13.50
2023-05-11T02:27:20.167Z,13.50
2023-05-11T02:29:49.337Z,13.50
2023-05-11T02:32:21.790Z,13.50
2023-05-11T02:35:01.613Z,13.50
2023-05-11T02:37:31.949Z,13.40
2023-05-11T02:40:06.639Z,13.40
2023-05-11T02:42:40.533Z,13.50
2023-05-11T02:45:12.890Z,13.40
2023-05-11T02:47:45.326Z,13.50
2023-05-11T02:50:14.818Z,13.40
2023-05-11T02:52:47.314Z,13.40
2023-05-11T02:55:17.815Z,13.30
2023-05-11T02:57:46.811Z,13.20
2023-05-11T03:00:18.072Z,13.30
2023-05-11T03:02:48.716Z,13.20
2023-05-11T03:05:17.423Z,13.20
2023-05-11T03:07:46.104Z,13.20
2023-05-11T03:10:15.957Z,13.10
2023-05-11T03:12:45.423Z,13.10
2023-05-11T03:15:14.543Z,13.10
2023-05-11T03:17:44.666Z,13.00
2023-05-11T03:20:17.031Z,13.10
2023-05-11T03:22:48.336Z,13.10
2023-05-11T03:25:18.616Z,13.00
2023-05-11T03:27:47.883Z,13.10
2023-05-11T03:30:18.597Z,13.00
2023-05-11T03:32:47.713Z,13.00
2023-05-11T03:35:18.940Z,12.70
2023-05-11T03:37:48.912Z,12.70
2023-05-11T03:40:20.996Z,12.70
2023-05-11T03:42:50.394Z,12.70
2023-05-11T03:45:21.452Z,12.70
2023-05-11T03:47:51.569Z,12.70
2023-05-11T03:50:22.641Z,12.60
2023-05-11T03:52:52.308Z,12.40
2023-05-11T03:55:21.651Z,12.30
2023-05-11T03:57:50.996Z,12.40
2023-05-11T04:00:20.939Z,12.50
2023-05-11T04:02:49.869Z,12.50
2023-05-11T04:05:19.422Z,12.40
2023-05-11T04:07:49.645Z,12.20
2023-05-11T04:10:18.505Z,12.30
2023-05-11T04:12:47.376Z,12.30
2023-05-11T04:15:16.216Z,12.30
2023-05-11T04:17:44.952Z,12.40
2023-05-11T04:20:13.924Z,12.30
2023-05-11T04:22:42.563Z,12.50
2023-05-11T04:25:13.855Z,12.60
2023-05-11T04:27:42.624Z,12.60
2023-05-11T04:30:11.948Z,12.80
2023-05-11T04:32:40.666Z,12.90
2023-05-11T04:35:10.026Z,12.70
2023-05-11T04:37:38.691Z,12.70
2023-05-11T04:40:08.817Z,12.70
2023-05-11T04:42:38.927Z,12.90
2023-05-11T04:45:10.974Z,13.10
2023-05-11T04:47:39.811Z,13.20
2023-05-11T04:50:09.592Z,13.20
2023-05-11T04:52:38.369Z,13.20
2023-05-11T04:55:07.934Z,13.20
2023-05-11T04:57:38.896Z,13.30
2023-05-11T05:00:11.080Z,13.50
2023-05-11T05:02:40.204Z,13.40
2023-05-11T05:05:09.983Z,13.60
2023-05-11T05:07:38.717Z,13.70
2023-05-11T05:10:09.341Z,13.80
2023-05-11T05:12:38.086Z,13.90
2023-05-11T05:15:09.624Z,13.90
2023-05-11T05:17:38.670Z,14.00
2023-05-11T05:20:08.908Z,14.20
2023-05-11T05:22:37.546Z,14.40
2023-05-11T05:25:07.012Z,14.40
2023-05-11T05:27:35.881Z,14.50
2023-05-11T05:30:04.739Z,14.60
2023-05-11T05:32:35.022Z,14.80
2023-05-11T05:35:04.137Z,14.90
2023-05-11T05:37:33.062Z,14.90
2023-05-11T05:40:01.815Z,15.10
2023-05-11T05:42:30.675Z,15.20
2023-05-11T05:44:59.312Z,15.20
2023-05-11T05:47:27.965Z,15.40
2023-05-11T05:49:57.998Z,15.60
2023-05-11T05:52:27.000Z,15.70
2023-05-11T05:54:55.625Z,15.60
2023-05-11T05:57:24.882Z,15.60
2023-05-11T05:59:57.381Z,15.70
2023-05-11T06:02:26.167Z,15.90
2023-05-11T06:04:55.172Z,16.10
2023-05-11T06:07:25.739Z,16.30
2023-05-11T06:09:54.627Z,16.30
2023-05-11T06:12:23.330Z,16.20
2023-05-11T06:14:52.030Z,16.30
2023-05-11T06:17:21.021Z,16.50
2023-05-11T06:19:52.869Z,16.60
2023-05-11T06:22:21.539Z,16.70
2023-05-11T06:24:51.733Z,16.60
2023-05-11T06:27:20.511Z,16.80
2023-05-11T06:29:49.282Z,16.80
2023-05-11T06:32:17.919Z,17.00
2023-05-11T06:34:46.589Z,17.10
2023-05-11T06:37:20.731Z,17.20
2023-05-11T06:39:50.778Z,17.40
2023-05-11T06:42:19.559Z,17.60
2023-05-11T06:44:48.307Z,18.40
2023-05-11T06:47:17.147Z,19.30
2023-05-11T06:49:45.988Z,20.20
2023-05-11T06:52:14.628Z,20.80
2023-05-11T06:54:43.333Z,21.00
2023-05-11T06:57:14.414Z,21.70
2023-05-11T06:59:44.224Z,21.60
2023-05-11T07:02:13.239Z,22.00
2023-05-11T07:04:41.935Z,22.70
2023-05-11T07:07:12.339Z,23.60
2023-05-11T07:09:42.115Z,24.70
2023-05-11T07:12:12.342Z,25.00
2023-05-11T07:14:41.002Z,25.10
2023-05-11T07:17:09.806Z,26.00
2023-05-11T07:19:38.586Z,25.70
2023-05-11T07:22:07.545Z,25.40
2023-05-11T07:24:36.813Z,25.40
2023-05-11T07:27:05.568Z,25.70
2023-05-11T07:29:35.660Z,25.50
2023-05-11T07:32:04.387Z,25.30
2023-05-11T07:34:33.098Z,25.10
2023-05-11T07:37:01.969Z,24.60
2023-05-11T07:39:48.877Z,24.30
2023-05-11T07:42:17.734Z,24.30
2023-05-11T07:44:47.991Z,24.50
2023-05-11T07:47:18.010Z,24.60
2023-05-11T07:49:47.701Z,24.60
2023-05-11T07:52:16.819Z,24.60
2023-05-11T07:54:46.611Z,24.70
2023-05-11T07:57:15.534Z,24.90
2023-05-11T07:59:44.644Z,25.70
2023-05-11T08:02:16.447Z,26.20
2023-05-11T08:04:45.268Z,26.20
2023-05-11T08:07:14.118Z,27.00
2023-05-11T08:09:43.072Z,28.20
2023-05-11T08:12:11.921Z,29.60
2023-05-11T08:14:40.591Z,31.00
2023-05-11T08:17:09.203Z,32.40
2023-05-11T08:19:39.380Z,32.90
2023-05-11T08:22:08.097Z,34.30
2023-05-11T08:24:37.144Z,35.40
2023-05-11T08:27:06.513Z,35.90
2023-05-11T08:29:35.269Z,36.50
2023-05-11T08:32:04.396Z,36.40
2023-05-11T08:34:33.582Z,36.80
2023-05-11T08:37:04.961Z,37.60
2023-05-11T08:39:46.783Z,38.60
2023-05-11T08:42:18.270Z,39.00
2023-05-11T08:44:48.922Z,38.80
2023-05-11T08:47:23.464Z,39.00
2023-05-11T08:49:55.584Z,39.00
2023-05-11T08:52:35.221Z,38.30
2023-05-11T08:55:05.064Z,37.30
2023-05-11T08:57:36.704Z,36.70
2023-05-11T09:00:08.062Z,35.90
2023-05-11T09:02:37.419Z,35.10
2023-05-11T09:05:07.220Z,35.00
2023-05-11T09:07:40.655Z,35.30
2023-05-11T09:10:12.916Z,35.40
2023-05-11T09:12:42.531Z,36.00
2023-05-11T09:15:12.555Z,36.40
2023-05-11T09:17:41.373Z,34.70
2023-05-11T09:20:11.071Z,33.50
2023-05-11T09:22:45.871Z,34.00
2023-05-11T09:25:17.901Z,34.20
2023-05-11T09:27:48.453Z,34.20
2023-05-11T09:30:22.408Z,33.20
2023-05-11T09:32:53.136Z,32.60
2023-05-11T09:35:24.415Z,32.30
2023-05-11T09:38:06.768Z,32.10
2023-05-11T09:40:39.694Z,32.40
2023-05-11T09:43:20.270Z,33.30
2023-05-11T09:45:50.437Z,33.30
2023-05-11T09:48:32.089Z,33.20
2023-05-11T09:51:03.866Z,33.50
2023-05-11T09:53:46.404Z,34.20
2023-05-11T09:56:16.138Z,34.70
2023-05-11T09:58:50.868Z,35.00
2023-05-11T10:01:31.508Z,34.70
2023-05-11T10:04:17.896Z,35.60
2023-05-11T10:06:53.877Z,37.30
2023-05-11T10:09:27.799Z,38.60
2023-05-11T10:11:58.837Z,39.10
2023-05-11T10:14:30.014Z,38.90
2023-05-11T10:17:00.189Z,39.00
2023-05-11T10:19:29.519Z,38.20
2023-05-11T10:21:58.956Z,37.60
2023-05-11T10:24:29.471Z,37.90
2023-05-11T10:26:59.241Z,37.90
2023-05-11T10:29:28.150Z,38.10
2023-05-11T10:31:59.226Z,37.30
2023-05-11T10:34:29.653Z,35.90
2023-05-11T10:37:01.266Z,36.50
2023-05-11T10:39:32.139Z,37.30
2023-05-11T10:42:44.049Z,38.90
2023-05-11T10:45:21.853Z,40.40
2023-05-11T10:48:24.506Z,40.90
2023-05-11T10:51:07.910Z,40.60
2023-05-11T10:53:51.817Z,40.80
2023-05-11T10:56:35.877Z,42.00
2023-05-11T10:59:31.978Z,41.30
2023-05-11T11:02:02.169Z,41.60
2023-05-11T11:04:44.313Z,39.60
2023-05-11T11:07:17.355Z,38.00
2023-05-11T11:09:54.140Z,36.30
2023-05-11T11:12:27.138Z,34.30
2023-05-11T11:14:57.778Z,34.00
2023-05-11T11:17:29.303Z,33.90
2023-05-11T11:19:58.110Z,34.10
2023-05-11T11:22:53.940Z,34.30
2023-05-11T11:25:53.679Z,34.80
2023-05-11T11:28:23.916Z,35.50
2023-05-11T11:31:25.797Z,36.50
2023-05-11T11:33:56.493Z,36.30
2023-05-11T11:37:03.715Z,37.30
2023-05-11T11:39:56.908Z,36.70
2023-05-11T11:42:39.007Z,35.00
2023-05-11T11:45:34.370Z,36.30
2023-05-11T11:48:13.451Z,37.80
2023-05-11T11:50:47.213Z,38.90
2023-05-11T11:53:58.454Z,40.20
2023-05-11T11:56:40.743Z,41.10
2023-05-11T11:59:14.085Z,41.40
2023-05-11T12:01:46.159Z,41.40
2023-05-11T12:04:47.646Z,40.10
2023-05-11T12:07:17.437Z,38.00
2023-05-11T12:09:47.842Z,36.50
2023-05-11T12:12:19.244Z,35.20
2023-05-11T12:14:50.355Z,34.00
2023-05-11T12:17:28.452Z,33.40
2023-05-11T12:20:12.173Z,32.40
2023-05-11T12:22:40.969Z,33.60
2023-05-11T12:25:11.760Z,35.30
2023-05-11T12:27:49.863Z,34.40
2023-05-11T12:30:23.218Z,33.30
2023-05-11T12:32:57.539Z,32.60
2023-05-11T12:35:27.694Z,30.70
2023-05-11T12:37:57.564Z,29.70
2023-05-11T12:40:26.365Z,29.10
2023-05-11T12:42:56.412Z,28.70
2023-05-11T12:45:26.281Z,28.10
2023-05-11T12:47:58.816Z,27.80
2023-05-11T12:50:27.756Z,27.60
2023-05-11T12:52:56.494Z,27.40
2023-05-11T12:55:32.212Z,27.20
2023-05-11T12:58:10.449Z,27.00
2023-05-11T13:00:39.567Z,27.00
2023-05-11T13:03:12.299Z,26.80
2023-05-11T13:05:41.288Z,26.40
2023-05-11T13:08:12.003Z,26.50
2023-05-11T13:10:40.806Z,26.80
2023-05-11T13:13:10.318Z,26.90
2023-05-11T13:15:52.985Z,26.40
2023-05-11T13:18:23.560Z,26.40
2023-05-11T13:21:07.164Z,26.40
2023-05-11T13:23:37.147Z,26.80
2023-05-11T13:26:06.555Z,26.90
2023-05-11T13:28:35.642Z,27.20
2023-05-11T13:31:04.413Z,27.10
2023-05-11T13:33:36.443Z,27.10
2023-05-11T13:36:07.105Z,26.90
2023-05-11T13:38:36.838Z,27.00
2023-05-11T13:41:07.065Z,26.90
2023-05-11T13:43:36.054Z,26.80
2023-05-11T13:46:05.411Z,27.00
2023-05-11T13:48:35.490Z,28.60
2023-05-11T13:51:04.585Z,30.60
2023-05-11T13:53:33.321Z,31.90
2023-05-11T13:56:03.572Z,32.90
2023-05-11T13:58:32.489Z,33.80
2023-05-11T14:01:07.577Z,34.60
2023-05-11T14:03:40.956Z,35.10
2023-05-11T14:06:10.323Z,35.30
2023-05-11T14:08:38.993Z,34.50
2023-05-11T14:11:07.727Z,33.30
2023-05-11T14:13:36.385Z,32.30
2023-05-11T14:16:05.209Z,31.40
2023-05-11T14:18:34.038Z,30.70
2023-05-11T14:21:04.339Z,30.20
2023-05-11T14:23:33.131Z,30.00
2023-05-11T14:26:01.716Z,31.10
2023-05-11T14:28:30.578Z,31.70
2023-05-11T14:30:59.867Z,31.60
2023-05-11T14:33:28.896Z,30.70
2023-05-11T14:35:57.723Z,30.30
2023-05-11T14:38:29.958Z,29.80
2023-05-11T14:41:00.255Z,28.90
2023-05-11T14:43:29.022Z,28.20
2023-05-11T14:45:57.734Z,27.40
2023-05-11T14:48:26.656Z,26.80
2023-05-11T14:50:55.347Z,26.60
2023-05-11T14:53:24.085Z,26.70
2023-05-11T14:55:54.266Z,26.50
2023-05-11T14:58:23.112Z,26.50
2023-05-11T15:00:51.891Z,26.50
2023-05-11T15:03:20.722Z,26.40
2023-05-11T15:05:49.526Z,26.50
2023-05-11T15:08:29.168Z,26.10
2023-05-11T15:11:00.764Z,26.20
2023-05-11T15:13:29.637Z,26.30
2023-05-11T15:15:59.004Z,26.50
2023-05-11T15:18:42.821Z,27.00
2023-05-11T15:21:12.651Z,27.40
2023-05-11T15:23:41.647Z,27.30
2023-05-11T15:26:12.213Z,27.30
2023-05-11T15:28:41.163Z,27.20
2023-05-11T15:31:10.007Z,26.90
2023-05-11T15:33:40.077Z,26.60
2023-05-11T15:36:29.462Z,26.30
2023-05-11T15:39:01.637Z,26.20
2023-05-11T15:41:35.651Z,26.00
2023-05-11T15:44:05.995Z,26.00
2023-05-11T15:46:36.637Z,25.90
2023-05-11T15:49:07.306Z,26.00
2023-05-11T15:51:38.566Z,26.10
2023-05-11T15:54:08.178Z,26.10
2023-05-11T15:56:46.738Z,26.00
2023-05-11T15:59:17.206Z,26.00
2023-05-11T16:01:46.576Z,25.60
2023-05-11T16:04:16.820Z,25.40
2023-05-11T16:06:49.705Z,25.20
2023-05-11T16:09:34.262Z,25.30
2023-05-11T16:12:04.702Z,25.10
2023-05-11T16:14:33.612Z,25.00
2023-05-11T16:17:03.347Z,24.90
2023-05-11T16:19:32.606Z,24.50
2023-05-11T16:22:01.629Z,24.40
2023-05-11T16:24:32.864Z,24.20
2023-05-11T16:27:04.652Z,24.10
2023-05-11T16:29:33.616Z,24.10
2023-05-11T16:32:02.685Z,23.90
2023-05-11T16:34:31.661Z,23.70
2023-05-11T16:37:00.617Z,23.40
2023-05-11T16:39:29.613Z,23.40
2023-05-11T16:41:58.577Z,23.40
2023-05-11T16:44:28.873Z,23.30
2023-05-11T16:46:58.746Z,23.00
2023-05-11T16:49:27.713Z,22.80
2023-05-11T16:51:56.508Z,22.80
2023-05-11T16:54:26.599Z,22.70
2023-05-11T16:56:55.648Z,22.60
2023-05-11T16:59:24.427Z,22.50
2023-05-11T17:01:54.992Z,22.40
2023-05-11T17:04:23.950Z,22.00
2023-05-11T17:06:52.873Z,22.00
2023-05-11T17:09:21.991Z,21.90
2023-05-11T17:11:50.790Z,21.90
2023-05-11T17:14:19.620Z,21.80
2023-05-11T17:16:48.526Z,21.80
2023-05-11T17:19:19.049Z,21.80
2023-05-11T17:21:47.889Z,21.80
2023-05-11T17:24:16.754Z,21.70
2023-05-11T17:26:48.347Z,21.60
2023-05-11T17:29:17.497Z,21.60
2023-05-11T17:31:49.283Z,21.40
2023-05-11T17:34:23.642Z,21.30
2023-05-11T17:36:54.911Z,21.30
2023-05-11T17:39:23.877Z,21.20
2023-05-11T17:41:52.885Z,21.20
2023-05-11T17:44:21.704Z,21.10
2023-05-11T17:46:51.097Z,21.00
2023-05-11T17:49:21.544Z,21.00
2023-05-11T17:51:50.363Z,21.00
2023-05-11T17:54:19.456Z,20.80
2023-05-11T17:56:49.085Z,20.70
2023-05-11T17:59:19.765Z,20.50
2023-05-11T18:01:50.200Z,20.40
2023-05-11T18:04:21.349Z,20.30
2023-05-11T18:06:50.191Z,20.10
2023-05-11T18:09:20.336Z,20.10
2023-05-11T18:11:49.110Z,20.00
2023-05-11T18:14:18.481Z,19.80
2023-05-11T18:16:49.694Z,19.70
2023-05-11T18:19:18.835Z,19.50
2023-05-11T18:21:50.024Z,19.30
2023-05-11T18:24:20.870Z,19.30
2023-05-11T18:26:50.019Z,19.20
2023-05-11T18:29:20.453Z,19.10
2023-05-11T18:31:49.893Z,19.10
2023-05-11T18:34:19.200Z,19.00
2023-05-11T18:36:49.466Z,18.80
2023-05-11T18:39:19.784Z,18.70
2023-05-11T18:41:48.799Z,18.60
2023-05-11T18:44:19.846Z,18.50
2023-05-11T18:46:48.763Z,18.50
2023-05-11T18:49:17.737Z,18.30
2023-05-11T18:51:47.127Z,18.30
2023-05-11T18:54:17.857Z,18.30
2023-05-11T18:56:47.259Z,18.20
2023-05-11T18:59:16.116Z,18.30
2023-05-11T19:01:47.959Z,18.30
2023-05-11T19:04:20.102Z,18.10
2023-05-11T19:06:50.386Z,18.00
2023-05-11T19:09:22.656Z,17.90
2023-05-11T19:11:52.004Z,17.80
2023-05-11T19:14:22.290Z,17.80
2023-05-11T19:16:51.441Z,17.80
2023-05-11T19:19:20.563Z,17.70
2023-05-11T19:21:49.342Z,17.60
2023-05-11T19:24:20.682Z,17.50
2023-05-11T19:27:02.618Z,17.50
2023-05-11T19:29:37.196Z,17.50
2023-05-11T19:32:07.444Z,17.40
2023-05-11T19:34:36.464Z,17.30
2023-05-11T19:37:05.661Z,17.20
2023-05-11T19:39:36.135Z,17.20
2023-05-11T19:42:05.123Z,17.20
2023-05-11T19:44:34.904Z,17.20
2023-05-11T19:47:03.887Z,17.10
2023-05-11T19:49:32.856Z,17.00
2023-05-11T19:52:01.721Z,16.80
2023-05-11T19:54:30.652Z,16.70
2023-05-11T19:57:01.267Z,16.60
2023-05-11T19:59:33.144Z,16.60
2023-05-11T20:02:03.307Z,16.50
2023-05-11T20:04:35.589Z,16.40
2023-05-11T20:07:04.500Z,16.30
2023-05-11T20:09:33.398Z,16.30
2023-05-11T20:12:03.803Z,16.20
2023-05-11T20:14:32.865Z,16.20
2023-05-11T20:17:02.014Z,16.20
2023-05-11T20:19:30.894Z,16.10
2023-05-11T20:21:59.697Z,16.00
2023-05-11T20:24:28.479Z,16.00
2023-05-11T20:26:57.394Z,16.00
2023-05-11T20:29:28.630Z,15.90
2023-05-11T20:31:57.466Z,15.80
2023-05-11T20:34:26.501Z,15.80
2023-05-11T20:36:55.476Z,15.70
2023-05-11T20:39:25.978Z,15.60
2023-05-11T20:41:55.420Z,15.50
2023-05-11T20:44:25.001Z,15.50
2023-05-11T20:46:55.295Z,15.50
2023-05-11T20:49:38.360Z,15.50
2023-05-11T20:52:08.273Z,15.40
2023-05-11T20:54:37.603Z,15.30
2023-05-11T20:57:06.736Z,15.30
2023-05-11T21:02:09.239Z,15.00
2023-05-11T21:04:38.151Z,15.00
2023-05-11T21:07:07.081Z,15.00
2023-05-11T21:09:36.524Z,14.90
2023-05-11T21:12:05.628Z,14.90
2023-05-11T21:14:34.718Z,14.90
2023-05-11T21:17:03.379Z,14.90
2023-05-11T21:19:33.561Z,14.90
2023-05-11T21:22:02.270Z,14.80
2023-05-11T21:24:30.948Z,14.70
2023-05-11T21:26:59.825Z,14.70
2023-05-11T21:29:28.581Z,14.60
2023-05-11T21:31:57.415Z,14.50
2023-05-11T21:34:26.105Z,14.50
2023-05-11T21:36:56.550Z,14.50
2023-05-11T21:39:25.392Z,14.50
2023-05-11T21:41:57.238Z,14.50
2023-05-11T21:44:25.956Z,14.50
2023-05-11T21:46:54.674Z,14.40
2023-05-11T21:49:23.271Z,14.30
2023-05-11T21:51:52.465Z,14.30
2023-05-11T21:54:22.731Z,14.30
2023-05-11T21:56:52.306Z,14.10
2023-05-11T21:59:21.402Z,14.10
2023-05-11T22:01:49.993Z,14.00
2023-05-11T22:04:18.796Z,14.00
2023-05-11T22:06:48.431Z,14.00
2023-05-11T22:09:17.510Z,13.90
2023-05-11T22:11:48.134Z,13.90
2023-05-11T22:14:16.784Z,13.90
2023-05-11T22:16:45.571Z,13.80
2023-05-11T22:19:15.114Z,13.80
2023-05-11T22:21:43.841Z,13.80
2023-05-11T22:24:13.690Z,13.80
2023-05-11T22:26:42.371Z,13.70
2023-05-11T22:29:12.510Z,13.70
2023-05-11T22:31:42.020Z,13.70
2023-05-11T22:34:12.189Z,13.70
2023-05-11T22:36:40.884Z,13.70
2023-05-11T22:39:11.515Z,13.70
2023-05-11T22:41:40.373Z,13.70
2023-05-11T22:44:09.486Z,13.60
2023-05-11T22:46:39.686Z,13.60
2023-05-11T22:49:08.589Z,13.60
2023-05-11T22:51:37.244Z,13.50
2023-05-11T22:54:06.228Z,13.50
2023-05-11T22:56:34.946Z,13.40
2023-05-11T22:59:04.966Z,13.30
2023-05-11T23:01:34.331Z,13.40
2023-05-11T23:04:04.621Z,13.30
2023-05-11T23:06:33.798Z,13.20
2023-05-11T23:09:02.562Z,13.20
2023-05-11T23:11:46.541Z,13.20
2023-05-11T23:14:15.290Z,13.10
2023-05-11T23:16:44.069Z,13.10
2023-05-11T23:19:14.283Z,13.10
2023-05-11T23:21:43.076Z,13.10
2023-05-11T23:24:12.415Z,13.10
2023-05-11T23:26:41.266Z,13.00
2023-05-11T23:29:10.049Z,13.00
2023-05-11T23:31:39.303Z,12.90
2023-05-11T23:34:08.057Z,12.80
2023-05-11T23:36:38.400Z,12.80
2023-05-11T23:39:07.266Z,12.90
2023-05-11T23:41:35.984Z,12.80
2023-05-11T23:44:05.054Z,12.70
2023-05-11T23:46:36.221Z,12.70
2023-05-11T23:49:05.032Z,12.60
2023-05-11T23:51:33.798Z,12.70
2023-05-11T23:54:04.052Z,12.70
2023-05-11T23:56:32.787Z,12.60
2023-05-11T23:59:01.491Z,12.60
